sensor_id;sensor_type;location;lat;lon;timestamp;P1;durP1;ratioP1;P2;durP2;ratioP2
76612;SDS011;65507;48.454;-2.058;2024-03-22T00:00:13;11.00;;;5.55;;
76612;SDS011;65507;48.454;-2.058;2024-03-22T00:02:40;10.77;;;5.32;;
76612;SDS011;65507;48.454;-2.058;2024-03-22T00:05:05;9.10;;;5.00;;
76612;SDS011;65507;48.454;-2.058;2024-03-22T00:07:31;11.25;;;5.40;;
76612;SDS011;65507;48.454;-2.058;2024-03-22T00:09:57;10.77;;;5.15;;
76612;SDS011;65507;48.454;-2.058;2024-03-22T00:12:22;9.88;;;4.78;;
76612;SDS011;65507;48.454;-2.058;2024-03-22T00:14:48;10.35;;;5.30;;
76612;SDS011;65507;48.454;-2.058;2024-03-22T00:17:16;11.07;;;4.95;;
76612;SDS011;65507;48.454;-2.058;2024-03-22T00:19:42;11.63;;;5.15;;
76612;SDS011;65507;48.454;-2.058;2024-03-22T00:22:07;10.70;;;5.13;;
76612;SDS011;65507;48.454;-2.058;2024-03-22T00:24:34;12.13;;;5.18;;
76612;SDS011;65507;48.454;-2.058;2024-03-22T00:26:59;13.98;;;5.30;;
76612;SDS011;65507;48.454;-2.058;2024-03-22T00:29:25;18.50;;;5.75;;
76612;SDS011;65507;48.454;-2.058;2024-03-22T00:31:51;10.48;;;5.00;;
76612;SDS011;65507;48.454;-2.058;2024-03-22T00:34:18;12.82;;;5.40;;
76612;SDS011;65507;48.454;-2.058;2024-03-22T00:36:47;9.77;;;4.97;;
76612;SDS011;65507;48.454;-2.058;2024-03-22T00:39:13;15.77;;;5.22;;
76612;SDS011;65507;48.454;-2.058;2024-03-22T00:41:39;12.98;;;5.28;;
76612;SDS011;65507;48.454;-2.058;2024-03-22T00:44:04;11.80;;;5.28;;
76612;SDS011;65507;48.454;-2.058;2024-03-22T00:46:30;11.10;;;4.95;;
76612;SDS011;65507;48.454;-2.058;2024-03-22T00:48:56;12.00;;;5.72;;
76612;SDS011;65507;48.454;-2.058;2024-03-22T00:51:23;15.63;;;6.03;;
76612;SDS011;65507;48.454;-2.058;2024-03-22T00:53:50;13.18;;;5.88;;
76612;SDS011;65507;48.454;-2.058;2024-03-22T00:56:16;12.55;;;6.00;;
76612;SDS011;65507;48.454;-2.058;2024-03-22T00:58:41;14.45;;;5.70;;
76612;SDS011;65507;48.454;-2.058;2024-03-22T01:01:07;13.52;;;6.00;;
76612;SDS011;65507;48.454;-2.058;2024-03-22T01:03:33;20.27;;;5.85;;
76612;SDS011;65507;48.454;-2.058;2024-03-22T01:05:58;23.90;;;6.68;;
76612;SDS011;65507;48.454;-2.058;2024-03-22T01:08:24;14.55;;;5.85;;
76612;SDS011;65507;48.454;-2.058;2024-03-22T01:10:50;14.65;;;6.47;;
76612;SDS011;65507;48.454;-2.058;2024-03-22T01:13:16;19.30;;;6.22;;
76612;SDS011;65507;48.454;-2.058;2024-03-22T01:15:42;18.05;;;6.55;;
76612;SDS011;65507;48.454;-2.058;2024-03-22T01:18:09;32.60;;;6.20;;
76612;SDS011;65507;48.454;-2.058;2024-03-22T01:20:34;36.70;;;6.70;;
76612;SDS011;65507;48.454;-2.058;2024-03-22T01:23:00;20.17;;;6.20;;
76612;SDS011;65507;48.454;-2.058;2024-03-22T01:25:26;34.10;;;7.93;;
76612;SDS011;65507;48.454;-2.058;2024-03-22T01:27:52;17.97;;;7.20;;
76612;SDS011;65507;48.454;-2.058;2024-03-22T01:30:18;53.58;;;6.82;;
76612;SDS011;65507;48.454;-2.058;2024-03-22T01:32:43;61.38;;;8.38;;
76612;SDS011;65507;48.454;-2.058;2024-03-22T01:35:09;32.85;;;7.00;;
76612;SDS011;65507;48.454;-2.058;2024-03-22T01:37:35;29.65;;;8.18;;
76612;SDS011;65507;48.454;-2.058;2024-03-22T01:40:00;32.25;;;6.93;;
76612;SDS011;65507;48.454;-2.058;2024-03-22T01:42:26;22.45;;;6.88;;
76612;SDS011;65507;48.454;-2.058;2024-03-22T01:44:52;29.08;;;6.47;;
76612;SDS011;65507;48.454;-2.058;2024-03-22T01:47:17;20.63;;;6.97;;
76612;SDS011;65507;48.454;-2.058;2024-03-22T01:49:43;35.90;;;7.47;;
76612;SDS011;65507;48.454;-2.058;2024-03-22T01:52:09;18.20;;;6.82;;
76612;SDS011;65507;48.454;-2.058;2024-03-22T01:54:35;34.25;;;7.13;;
76612;SDS011;65507;48.454;-2.058;2024-03-22T01:57:01;45.30;;;7.30;;
76612;SDS011;65507;48.454;-2.058;2024-03-22T01:59:27;22.38;;;6.20;;
76612;SDS011;65507;48.454;-2.058;2024-03-22T02:01:54;39.72;;;6.40;;
76612;SDS011;65507;48.454;-2.058;2024-03-22T02:04:20;22.15;;;7.13;;
76612;SDS011;65507;48.454;-2.058;2024-03-22T02:06:45;87.55;;;8.82;;
76612;SDS011;65507;48.454;-2.058;2024-03-22T02:09:11;44.85;;;7.47;;
76612;SDS011;65507;48.454;-2.058;2024-03-22T02:11:37;47.30;;;7.15;;
76612;SDS011;65507;48.454;-2.058;2024-03-22T02:14:05;45.45;;;6.85;;
76612;SDS011;65507;48.454;-2.058;2024-03-22T02:16:30;25.70;;;7.07;;
76612;SDS011;65507;48.454;-2.058;2024-03-22T02:18:56;31.98;;;6.18;;
76612;SDS011;65507;48.454;-2.058;2024-03-22T02:21:22;34.70;;;6.85;;
76612;SDS011;65507;48.454;-2.058;2024-03-22T02:23:47;68.65;;;7.75;;
76612;SDS011;65507;48.454;-2.058;2024-03-22T02:26:13;28.13;;;6.57;;
76612;SDS011;65507;48.454;-2.058;2024-03-22T02:28:39;31.55;;;7.13;;
76612;SDS011;65507;48.454;-2.058;2024-03-22T02:31:04;39.47;;;6.50;;
76612;SDS011;65507;48.454;-2.058;2024-03-22T02:33:30;15.65;;;5.97;;
76612;SDS011;65507;48.454;-2.058;2024-03-22T02:35:56;32.65;;;7.10;;
76612;SDS011;65507;48.454;-2.058;2024-03-22T02:38:22;37.22;;;7.28;;
76612;SDS011;65507;48.454;-2.058;2024-03-22T02:40:48;32.78;;;7.60;;
76612;SDS011;65507;48.454;-2.058;2024-03-22T02:43:15;48.13;;;7.50;;
76612;SDS011;65507;48.454;-2.058;2024-03-22T02:45:43;20.08;;;6.90;;
76612;SDS011;65507;48.454;-2.058;2024-03-22T02:48:09;21.38;;;6.65;;
76612;SDS011;65507;48.454;-2.058;2024-03-22T02:50:35;27.52;;;6.85;;
76612;SDS011;65507;48.454;-2.058;2024-03-22T02:53:02;23.00;;;6.72;;
76612;SDS011;65507;48.454;-2.058;2024-03-22T02:55:28;12.23;;;6.17;;
76612;SDS011;65507;48.454;-2.058;2024-03-22T02:57:55;12.60;;;6.28;;
76612;SDS011;65507;48.454;-2.058;2024-03-22T03:00:22;18.10;;;5.75;;
76612;SDS011;65507;48.454;-2.058;2024-03-22T03:02:48;19.92;;;5.78;;
76612;SDS011;65507;48.454;-2.058;2024-03-22T03:05:15;28.77;;;6.22;;
76612;SDS011;65507;48.454;-2.058;2024-03-22T03:07:41;29.02;;;6.75;;
76612;SDS011;65507;48.454;-2.058;2024-03-22T03:10:07;16.83;;;5.80;;
76612;SDS011;65507;48.454;-2.058;2024-03-22T03:12:32;21.38;;;6.00;;
76612;SDS011;65507;48.454;-2.058;2024-03-22T03:14:58;26.88;;;5.72;;
76612;SDS011;65507;48.454;-2.058;2024-03-22T03:17:27;17.42;;;5.68;;
76612;SDS011;65507;48.454;-2.058;2024-03-22T03:19:53;26.00;;;6.10;;
76612;SDS011;65507;48.454;-2.058;2024-03-22T03:22:19;23.30;;;5.88;;
76612;SDS011;65507;48.454;-2.058;2024-03-22T03:24:44;22.23;;;6.60;;
76612;SDS011;65507;48.454;-2.058;2024-03-22T03:27:10;14.85;;;6.68;;
76612;SDS011;65507;48.454;-2.058;2024-03-22T03:29:36;13.68;;;5.97;;
76612;SDS011;65507;48.454;-2.058;2024-03-22T03:32:02;12.80;;;5.70;;
76612;SDS011;65507;48.454;-2.058;2024-03-22T03:34:28;27.63;;;6.50;;
76612;SDS011;65507;48.454;-2.058;2024-03-22T03:36:53;19.17;;;6.35;;
76612;SDS011;65507;48.454;-2.058;2024-03-22T03:39:19;14.77;;;6.15;;
76612;SDS011;65507;48.454;-2.058;2024-03-22T03:41:47;19.00;;;6.05;;
76612;SDS011;65507;48.454;-2.058;2024-03-22T03:44:13;23.15;;;6.40;;
76612;SDS011;65507;48.454;-2.058;2024-03-22T03:46:39;19.48;;;6.28;;
76612;SDS011;65507;48.454;-2.058;2024-03-22T03:49:05;15.13;;;6.40;;
76612;SDS011;65507;48.454;-2.058;2024-03-22T03:51:30;12.52;;;5.45;;
76612;SDS011;65507;48.454;-2.058;2024-03-22T03:53:56;14.35;;;5.93;;
76612;SDS011;65507;48.454;-2.058;2024-03-22T03:56:22;17.00;;;6.53;;
76612;SDS011;65507;48.454;-2.058;2024-03-22T03:58:47;17.30;;;6.30;;
76612;SDS011;65507;48.454;-2.058;2024-03-22T04:01:13;14.60;;;6.45;;
76612;SDS011;65507;48.454;-2.058;2024-03-22T04:03:39;18.95;;;6.55;;
76612;SDS011;65507;48.454;-2.058;2024-03-22T04:06:05;16.35;;;6.68;;
76612;SDS011;65507;48.454;-2.058;2024-03-22T04:08:30;17.30;;;6.78;;
76612;SDS011;65507;48.454;-2.058;2024-03-22T04:10:57;12.55;;;6.07;;
76612;SDS011;65507;48.454;-2.058;2024-03-22T04:13:26;13.27;;;6.28;;
76612;SDS011;65507;48.454;-2.058;2024-03-22T04:15:52;13.32;;;6.10;;
76612;SDS011;65507;48.454;-2.058;2024-03-22T04:18:18;12.73;;;5.85;;
76612;SDS011;65507;48.454;-2.058;2024-03-22T04:20:57;14.20;;;7.20;;
76612;SDS011;65507;48.454;-2.058;2024-03-22T04:23:24;13.40;;;6.07;;
76612;SDS011;65507;48.454;-2.058;2024-03-22T04:26:00;11.20;;;5.82;;
76612;SDS011;65507;48.454;-2.058;2024-03-22T04:28:27;13.32;;;5.82;;
76612;SDS011;65507;48.454;-2.058;2024-03-22T04:30:54;9.63;;;5.03;;
76612;SDS011;65507;48.454;-2.058;2024-03-22T04:33:24;12.23;;;5.43;;
76612;SDS011;65507;48.454;-2.058;2024-03-22T04:35:50;10.88;;;5.05;;
76612;SDS011;65507;48.454;-2.058;2024-03-22T04:38:16;8.52;;;4.90;;
76612;SDS011;65507;48.454;-2.058;2024-03-22T04:40:42;9.43;;;4.90;;
76612;SDS011;65507;48.454;-2.058;2024-03-22T04:43:07;11.45;;;5.18;;
76612;SDS011;65507;48.454;-2.058;2024-03-22T04:45:33;9.85;;;5.28;;
76612;SDS011;65507;48.454;-2.058;2024-03-22T04:48:00;9.27;;;4.63;;
76612;SDS011;65507;48.454;-2.058;2024-03-22T04:50:27;11.13;;;5.28;;
76612;SDS011;65507;48.454;-2.058;2024-03-22T04:52:53;10.45;;;4.97;;
76612;SDS011;65507;48.454;-2.058;2024-03-22T04:55:19;10.25;;;5.32;;
76612;SDS011;65507;48.454;-2.058;2024-03-22T04:57:45;12.00;;;5.97;;
76612;SDS011;65507;48.454;-2.058;2024-03-22T05:00:11;10.30;;;4.97;;
76612;SDS011;65507;48.454;-2.058;2024-03-22T05:02:37;10.27;;;5.20;;
76612;SDS011;65507;48.454;-2.058;2024-03-22T05:05:03;8.80;;;4.55;;
76612;SDS011;65507;48.454;-2.058;2024-03-22T05:07:29;9.25;;;4.75;;
76612;SDS011;65507;48.454;-2.058;2024-03-22T05:09:55;10.10;;;4.50;;
76612;SDS011;65507;48.454;-2.058;2024-03-22T05:12:20;9.07;;;4.35;;
76612;SDS011;65507;48.454;-2.058;2024-03-22T05:14:46;9.65;;;4.57;;
76612;SDS011;65507;48.454;-2.058;2024-03-22T05:17:12;10.48;;;4.97;;
76612;SDS011;65507;48.454;-2.058;2024-03-22T05:19:37;8.50;;;4.40;;
76612;SDS011;65507;48.454;-2.058;2024-03-22T05:22:03;10.00;;;4.32;;
76612;SDS011;65507;48.454;-2.058;2024-03-22T05:24:29;8.13;;;4.57;;
76612;SDS011;65507;48.454;-2.058;2024-03-22T05:26:54;11.52;;;4.53;;
76612;SDS011;65507;48.454;-2.058;2024-03-22T05:29:20;9.23;;;4.35;;
76612;SDS011;65507;48.454;-2.058;2024-03-22T05:31:47;9.50;;;4.45;;
76612;SDS011;65507;48.454;-2.058;2024-03-22T05:34:15;8.95;;;4.45;;
76612;SDS011;65507;48.454;-2.058;2024-03-22T05:36:41;8.05;;;4.35;;
76612;SDS011;65507;48.454;-2.058;2024-03-22T05:39:07;10.27;;;4.72;;
76612;SDS011;65507;48.454;-2.058;2024-03-22T05:41:33;8.10;;;4.18;;
76612;SDS011;65507;48.454;-2.058;2024-03-22T05:43:58;7.55;;;4.00;;
76612;SDS011;65507;48.454;-2.058;2024-03-22T05:46:24;8.82;;;4.03;;
76612;SDS011;65507;48.454;-2.058;2024-03-22T05:48:50;7.85;;;4.68;;
76612;SDS011;65507;48.454;-2.058;2024-03-22T05:51:17;9.32;;;4.60;;
76612;SDS011;65507;48.454;-2.058;2024-03-22T05:53:43;13.75;;;4.88;;
76612;SDS011;65507;48.454;-2.058;2024-03-22T05:56:09;11.57;;;4.63;;
76612;SDS011;65507;48.454;-2.058;2024-03-22T05:58:34;10.57;;;4.70;;
76612;SDS011;65507;48.454;-2.058;2024-03-22T06:01:01;9.40;;;4.80;;
76612;SDS011;65507;48.454;-2.058;2024-03-22T06:03:28;9.63;;;4.82;;
76612;SDS011;65507;48.454;-2.058;2024-03-22T06:05:54;11.30;;;5.50;;
76612;SDS011;65507;48.454;-2.058;2024-03-22T06:08:24;11.30;;;5.15;;
76612;SDS011;65507;48.454;-2.058;2024-03-22T06:10:53;9.18;;;4.35;;
76612;SDS011;65507;48.454;-2.058;2024-03-22T06:13:19;12.15;;;5.57;;
76612;SDS011;65507;48.454;-2.058;2024-03-22T06:15:46;12.20;;;5.43;;
76612;SDS011;65507;48.454;-2.058;2024-03-22T06:18:13;12.77;;;5.10;;
76612;SDS011;65507;48.454;-2.058;2024-03-22T06:20:39;14.48;;;5.80;;
76612;SDS011;65507;48.454;-2.058;2024-03-22T06:23:05;13.25;;;5.57;;
76612;SDS011;65507;48.454;-2.058;2024-03-22T06:25:32;14.68;;;6.10;;
76612;SDS011;65507;48.454;-2.058;2024-03-22T06:27:57;14.98;;;5.90;;
76612;SDS011;65507;48.454;-2.058;2024-03-22T06:30:23;10.40;;;4.72;;
76612;SDS011;65507;48.454;-2.058;2024-03-22T06:32:49;11.52;;;5.53;;
76612;SDS011;65507;48.454;-2.058;2024-03-22T06:35:14;12.00;;;5.72;;
76612;SDS011;65507;48.454;-2.058;2024-03-22T06:37:40;13.60;;;5.72;;
76612;SDS011;65507;48.454;-2.058;2024-03-22T06:40:09;11.73;;;5.22;;
76612;SDS011;65507;48.454;-2.058;2024-03-22T06:42:35;11.98;;;4.95;;
76612;SDS011;65507;48.454;-2.058;2024-03-22T06:45:02;10.48;;;5.60;;
76612;SDS011;65507;48.454;-2.058;2024-03-22T06:47:27;14.27;;;5.78;;
76612;SDS011;65507;48.454;-2.058;2024-03-22T06:49:53;11.25;;;5.90;;
76612;SDS011;65507;48.454;-2.058;2024-03-22T06:52:19;14.05;;;6.22;;
76612;SDS011;65507;48.454;-2.058;2024-03-22T06:54:45;11.15;;;5.30;;
76612;SDS011;65507;48.454;-2.058;2024-03-22T06:57:12;13.93;;;5.45;;
76612;SDS011;65507;48.454;-2.058;2024-03-22T06:59:37;13.00;;;5.45;;
76612;SDS011;65507;48.454;-2.058;2024-03-22T07:02:03;10.18;;;4.88;;
76612;SDS011;65507;48.454;-2.058;2024-03-22T07:04:29;11.93;;;5.40;;
76612;SDS011;65507;48.454;-2.058;2024-03-22T07:06:55;21.58;;;8.73;;
76612;SDS011;65507;48.454;-2.058;2024-03-22T07:09:20;12.45;;;5.65;;
76612;SDS011;65507;48.454;-2.058;2024-03-22T07:11:46;11.02;;;4.75;;
76612;SDS011;65507;48.454;-2.058;2024-03-22T07:14:12;11.25;;;5.18;;
76612;SDS011;65507;48.454;-2.058;2024-03-22T07:16:37;12.88;;;5.43;;
76612;SDS011;65507;48.454;-2.058;2024-03-22T07:19:03;11.18;;;5.25;;
76612;SDS011;65507;48.454;-2.058;2024-03-22T07:21:29;13.15;;;5.50;;
76612;SDS011;65507;48.454;-2.058;2024-03-22T07:23:56;13.45;;;5.60;;
76612;SDS011;65507;48.454;-2.058;2024-03-22T07:26:21;16.15;;;6.95;;
76612;SDS011;65507;48.454;-2.058;2024-03-22T07:28:47;19.88;;;9.40;;
76612;SDS011;65507;48.454;-2.058;2024-03-22T07:31:13;12.82;;;6.57;;
76612;SDS011;65507;48.454;-2.058;2024-03-22T07:33:39;11.90;;;5.00;;
76612;SDS011;65507;48.454;-2.058;2024-03-22T07:36:05;10.27;;;4.93;;
76612;SDS011;65507;48.454;-2.058;2024-03-22T07:38:31;10.95;;;5.15;;
76612;SDS011;65507;48.454;-2.058;2024-03-22T07:40:57;10.70;;;4.78;;
76612;SDS011;65507;48.454;-2.058;2024-03-22T07:43:23;8.98;;;4.93;;
76612;SDS011;65507;48.454;-2.058;2024-03-22T07:45:49;9.02;;;4.68;;
76612;SDS011;65507;48.454;-2.058;2024-03-22T07:48:15;10.88;;;4.78;;
76612;SDS011;65507;48.454;-2.058;2024-03-22T07:50:43;10.75;;;4.65;;
76612;SDS011;65507;48.454;-2.058;2024-03-22T07:53:08;13.50;;;5.60;;
76612;SDS011;65507;48.454;-2.058;2024-03-22T07:55:34;12.23;;;6.13;;
76612;SDS011;65507;48.454;-2.058;2024-03-22T07:58:00;13.32;;;5.40;;
76612;SDS011;65507;48.454;-2.058;2024-03-22T08:00:26;9.30;;;5.13;;
76612;SDS011;65507;48.454;-2.058;2024-03-22T08:02:52;10.55;;;4.72;;
76612;SDS011;65507;48.454;-2.058;2024-03-22T08:05:19;11.40;;;5.07;;
76612;SDS011;65507;48.454;-2.058;2024-03-22T08:07:45;12.15;;;5.30;;
76612;SDS011;65507;48.454;-2.058;2024-03-22T08:10:11;11.93;;;4.50;;
76612;SDS011;65507;48.454;-2.058;2024-03-22T08:12:37;10.38;;;4.43;;
76612;SDS011;65507;48.454;-2.058;2024-03-22T08:15:03;13.40;;;5.13;;
76612;SDS011;65507;48.454;-2.058;2024-03-22T08:17:29;10.52;;;4.50;;
76612;SDS011;65507;48.454;-2.058;2024-03-22T08:19:55;8.30;;;4.10;;
76612;SDS011;65507;48.454;-2.058;2024-03-22T08:22:20;11.68;;;5.18;;
76612;SDS011;65507;48.454;-2.058;2024-03-22T08:24:46;11.55;;;5.50;;
76612;SDS011;65507;48.454;-2.058;2024-03-22T08:27:12;8.43;;;4.75;;
76612;SDS011;65507;48.454;-2.058;2024-03-22T08:29:40;9.45;;;4.70;;
76612;SDS011;65507;48.454;-2.058;2024-03-22T08:32:06;10.93;;;4.88;;
76612;SDS011;65507;48.454;-2.058;2024-03-22T08:34:32;8.38;;;4.15;;
76612;SDS011;65507;48.454;-2.058;2024-03-22T08:36:58;8.60;;;4.10;;
76612;SDS011;65507;48.454;-2.058;2024-03-22T08:39:24;8.65;;;4.20;;
76612;SDS011;65507;48.454;-2.058;2024-03-22T08:41:50;9.05;;;4.15;;
76612;SDS011;65507;48.454;-2.058;2024-03-22T08:44:16;9.68;;;4.40;;
76612;SDS011;65507;48.454;-2.058;2024-03-22T08:46:43;10.98;;;4.45;;
76612;SDS011;65507;48.454;-2.058;2024-03-22T08:49:08;10.27;;;4.43;;
76612;SDS011;65507;48.454;-2.058;2024-03-22T08:51:34;9.38;;;4.63;;
76612;SDS011;65507;48.454;-2.058;2024-03-22T08:54:00;14.65;;;5.30;;
76612;SDS011;65507;48.454;-2.058;2024-03-22T08:56:26;8.63;;;4.05;;
76612;SDS011;65507;48.454;-2.058;2024-03-22T08:58:52;10.10;;;4.55;;
76612;SDS011;65507;48.454;-2.058;2024-03-22T09:01:17;7.05;;;3.85;;
76612;SDS011;65507;48.454;-2.058;2024-03-22T09:03:43;6.35;;;3.58;;
76612;SDS011;65507;48.454;-2.058;2024-03-22T09:06:11;6.75;;;3.60;;
76612;SDS011;65507;48.454;-2.058;2024-03-22T09:08:37;5.85;;;3.40;;
76612;SDS011;65507;48.454;-2.058;2024-03-22T09:11:03;6.70;;;3.58;;
76612;SDS011;65507;48.454;-2.058;2024-03-22T09:13:29;9.87;;;4.27;;
76612;SDS011;65507;48.454;-2.058;2024-03-22T09:15:56;7.15;;;3.95;;
76612;SDS011;65507;48.454;-2.058;2024-03-22T09:18:22;7.15;;;3.72;;
76612;SDS011;65507;48.454;-2.058;2024-03-22T09:20:48;10.25;;;3.67;;
76612;SDS011;65507;48.454;-2.058;2024-03-22T09:23:14;7.45;;;4.22;;
76612;SDS011;65507;48.454;-2.058;2024-03-22T09:25:39;28.83;;;14.90;;
76612;SDS011;65507;48.454;-2.058;2024-03-22T09:28:05;12.23;;;5.70;;
76612;SDS011;65507;48.454;-2.058;2024-03-22T09:30:31;7.78;;;3.83;;
76612;SDS011;65507;48.454;-2.058;2024-03-22T09:32:56;8.07;;;4.03;;
76612;SDS011;65507;48.454;-2.058;2024-03-22T09:35:22;7.00;;;3.88;;
76612;SDS011;65507;48.454;-2.058;2024-03-22T09:37:48;6.80;;;3.75;;
76612;SDS011;65507;48.454;-2.058;2024-03-22T09:40:14;7.63;;;4.53;;
76612;SDS011;65507;48.454;-2.058;2024-03-22T09:42:41;10.85;;;5.05;;
76612;SDS011;65507;48.454;-2.058;2024-03-22T09:45:10;9.65;;;4.57;;
76612;SDS011;65507;48.454;-2.058;2024-03-22T09:47:36;8.45;;;4.38;;
76612;SDS011;65507;48.454;-2.058;2024-03-22T09:50:03;7.07;;;3.67;;
76612;SDS011;65507;48.454;-2.058;2024-03-22T09:52:32;9.73;;;3.92;;
76612;SDS011;65507;48.454;-2.058;2024-03-22T09:54:58;8.15;;;4.28;;
76612;SDS011;65507;48.454;-2.058;2024-03-22T09:57:24;8.48;;;3.75;;
76612;SDS011;65507;48.454;-2.058;2024-03-22T09:59:51;12.23;;;4.38;;
76612;SDS011;65507;48.454;-2.058;2024-03-22T10:02:17;7.75;;;3.80;;
76612;SDS011;65507;48.454;-2.058;2024-03-22T10:04:43;7.72;;;3.88;;
76612;SDS011;65507;48.454;-2.058;2024-03-22T10:07:09;9.82;;;5.80;;
76612;SDS011;65507;48.454;-2.058;2024-03-22T10:09:35;11.83;;;6.07;;
76612;SDS011;65507;48.454;-2.058;2024-03-22T10:12:01;8.70;;;4.10;;
76612;SDS011;65507;48.454;-2.058;2024-03-22T10:14:28;10.90;;;5.35;;
76612;SDS011;65507;48.454;-2.058;2024-03-22T10:16:54;9.38;;;4.03;;
76612;SDS011;65507;48.454;-2.058;2024-03-22T10:19:23;7.03;;;3.45;;
76612;SDS011;65507;48.454;-2.058;2024-03-22T10:22:02;8.23;;;3.47;;
76612;SDS011;65507;48.454;-2.058;2024-03-22T10:24:29;7.03;;;3.90;;
76612;SDS011;65507;48.454;-2.058;2024-03-22T10:26:55;7.60;;;3.65;;
76612;SDS011;65507;48.454;-2.058;2024-03-22T10:29:21;7.57;;;4.07;;
76612;SDS011;65507;48.454;-2.058;2024-03-22T10:31:50;7.60;;;3.30;;
76612;SDS011;65507;48.454;-2.058;2024-03-22T10:34:17;9.63;;;3.97;;
76612;SDS011;65507;48.454;-2.058;2024-03-22T10:36:43;6.15;;;3.22;;
76612;SDS011;65507;48.454;-2.058;2024-03-22T10:39:09;5.65;;;3.58;;
76612;SDS011;65507;48.454;-2.058;2024-03-22T10:41:38;4.53;;;2.88;;
76612;SDS011;65507;48.454;-2.058;2024-03-22T10:44:03;5.05;;;3.20;;
76612;SDS011;65507;48.454;-2.058;2024-03-22T10:46:30;6.10;;;3.10;;
76612;SDS011;65507;48.454;-2.058;2024-03-22T10:48:59;5.57;;;3.22;;
76612;SDS011;65507;48.454;-2.058;2024-03-22T10:51:29;6.65;;;3.58;;
76612;SDS011;65507;48.454;-2.058;2024-03-22T10:53:56;5.28;;;3.17;;
76612;SDS011;65507;48.454;-2.058;2024-03-22T10:56:23;6.40;;;3.08;;
76612;SDS011;65507;48.454;-2.058;2024-03-22T10:58:50;7.97;;;3.33;;
76612;SDS011;65507;48.454;-2.058;2024-03-22T11:01:24;7.85;;;3.33;;
76612;SDS011;65507;48.454;-2.058;2024-03-22T11:03:51;8.23;;;3.42;;
76612;SDS011;65507;48.454;-2.058;2024-03-22T11:06:34;7.15;;;3.45;;
76612;SDS011;65507;48.454;-2.058;2024-03-22T11:09:02;4.13;;;2.55;;
76612;SDS011;65507;48.454;-2.058;2024-03-22T11:11:31;5.32;;;3.25;;
76612;SDS011;65507;48.454;-2.058;2024-03-22T11:14:02;4.95;;;2.80;;
76612;SDS011;65507;48.454;-2.058;2024-03-22T11:16:28;7.57;;;2.53;;
76612;SDS011;65507;48.454;-2.058;2024-03-22T11:18:55;4.90;;;2.90;;
76612;SDS011;65507;48.454;-2.058;2024-03-22T11:21:21;6.03;;;3.22;;
76612;SDS011;65507;48.454;-2.058;2024-03-22T11:23:46;5.80;;;3.13;;
76612;SDS011;65507;48.454;-2.058;2024-03-22T11:26:13;6.32;;;3.63;;
76612;SDS011;65507;48.454;-2.058;2024-03-22T11:28:39;6.82;;;3.67;;
76612;SDS011;65507;48.454;-2.058;2024-03-22T11:31:08;7.78;;;4.03;;
76612;SDS011;65507;48.454;-2.058;2024-03-22T11:33:33;7.43;;;4.20;;
76612;SDS011;65507;48.454;-2.058;2024-03-22T11:36:01;9.98;;;5.18;;
76612;SDS011;65507;48.454;-2.058;2024-03-22T11:38:29;8.00;;;4.47;;
76612;SDS011;65507;48.454;-2.058;2024-03-22T11:40:56;8.23;;;4.75;;
76612;SDS011;65507;48.454;-2.058;2024-03-22T11:43:24;8.63;;;4.82;;
76612;SDS011;65507;48.454;-2.058;2024-03-22T11:45:53;8.38;;;4.68;;
76612;SDS011;65507;48.454;-2.058;2024-03-22T11:48:19;9.68;;;5.65;;
76612;SDS011;65507;48.454;-2.058;2024-03-22T11:50:45;8.10;;;4.90;;
76612;SDS011;65507;48.454;-2.058;2024-03-22T11:53:11;9.53;;;4.53;;
76612;SDS011;65507;48.454;-2.058;2024-03-22T11:55:37;7.82;;;4.35;;
76612;SDS011;65507;48.454;-2.058;2024-03-22T11:58:03;6.57;;;3.75;;
76612;SDS011;65507;48.454;-2.058;2024-03-22T12:00:29;6.45;;;4.22;;
76612;SDS011;65507;48.454;-2.058;2024-03-22T12:02:54;7.85;;;4.18;;
76612;SDS011;65507;48.454;-2.058;2024-03-22T12:05:20;8.32;;;4.03;;
76612;SDS011;65507;48.454;-2.058;2024-03-22T12:07:46;7.18;;;3.95;;
76612;SDS011;65507;48.454;-2.058;2024-03-22T12:10:12;7.43;;;3.85;;
76612;SDS011;65507;48.454;-2.058;2024-03-22T12:12:38;6.68;;;3.92;;
76612;SDS011;65507;48.454;-2.058;2024-03-22T12:15:04;5.70;;;3.50;;
76612;SDS011;65507;48.454;-2.058;2024-03-22T12:17:30;6.63;;;3.60;;
76612;SDS011;65507;48.454;-2.058;2024-03-22T12:19:56;8.23;;;3.85;;
76612;SDS011;65507;48.454;-2.058;2024-03-22T12:22:22;6.97;;;3.80;;
76612;SDS011;65507;48.454;-2.058;2024-03-22T12:24:50;6.00;;;3.70;;
76612;SDS011;65507;48.454;-2.058;2024-03-22T12:27:16;5.65;;;3.58;;
76612;SDS011;65507;48.454;-2.058;2024-03-22T12:29:42;26.17;;;12.35;;
76612;SDS011;65507;48.454;-2.058;2024-03-22T12:32:07;6.30;;;4.10;;
76612;SDS011;65507;48.454;-2.058;2024-03-22T12:34:33;6.88;;;3.47;;
76612;SDS011;65507;48.454;-2.058;2024-03-22T12:36:59;6.90;;;3.40;;
76612;SDS011;65507;48.454;-2.058;2024-03-22T12:39:25;6.32;;;3.55;;
76612;SDS011;65507;48.454;-2.058;2024-03-22T12:41:51;4.80;;;3.10;;
76612;SDS011;65507;48.454;-2.058;2024-03-22T12:44:17;10.63;;;3.53;;
76612;SDS011;65507;48.454;-2.058;2024-03-22T12:46:43;8.90;;;3.60;;
76612;SDS011;65507;48.454;-2.058;2024-03-22T12:49:10;5.93;;;3.10;;
76612;SDS011;65507;48.454;-2.058;2024-03-22T12:51:36;4.90;;;3.30;;
76612;SDS011;65507;48.454;-2.058;2024-03-22T12:54:02;7.00;;;3.85;;
76612;SDS011;65507;48.454;-2.058;2024-03-22T12:56:28;6.78;;;3.60;;
76612;SDS011;65507;48.454;-2.058;2024-03-22T12:58:55;7.40;;;3.85;;
76612;SDS011;65507;48.454;-2.058;2024-03-22T13:01:21;9.32;;;4.13;;
76612;SDS011;65507;48.454;-2.058;2024-03-22T13:03:46;5.55;;;3.15;;
76612;SDS011;65507;48.454;-2.058;2024-03-22T13:06:12;6.38;;;3.70;;
76612;SDS011;65507;48.454;-2.058;2024-03-22T13:08:38;6.88;;;3.95;;
76612;SDS011;65507;48.454;-2.058;2024-03-22T13:11:04;7.47;;;4.13;;
76612;SDS011;65507;48.454;-2.058;2024-03-22T13:13:33;7.25;;;3.90;;
76612;SDS011;65507;48.454;-2.058;2024-03-22T13:15:59;6.72;;;3.88;;
76612;SDS011;65507;48.454;-2.058;2024-03-22T13:18:27;6.60;;;3.42;;
76612;SDS011;65507;48.454;-2.058;2024-03-22T13:20:56;5.45;;;3.40;;
76612;SDS011;65507;48.454;-2.058;2024-03-22T13:23:22;6.47;;;3.35;;
76612;SDS011;65507;48.454;-2.058;2024-03-22T13:25:50;7.18;;;3.88;;
76612;SDS011;65507;48.454;-2.058;2024-03-22T13:28:16;7.32;;;3.92;;
76612;SDS011;65507;48.454;-2.058;2024-03-22T13:30:45;7.10;;;3.95;;
76612;SDS011;65507;48.454;-2.058;2024-03-22T13:33:11;7.63;;;4.10;;
76612;SDS011;65507;48.454;-2.058;2024-03-22T13:35:36;6.55;;;3.85;;
76612;SDS011;65507;48.454;-2.058;2024-03-22T13:38:02;9.05;;;3.60;;
76612;SDS011;65507;48.454;-2.058;2024-03-22T13:40:28;12.57;;;6.45;;
76612;SDS011;65507;48.454;-2.058;2024-03-22T13:42:53;9.10;;;4.38;;
76612;SDS011;65507;48.454;-2.058;2024-03-22T13:45:19;6.53;;;3.60;;
76612;SDS011;65507;48.454;-2.058;2024-03-22T13:47:45;6.85;;;3.60;;
76612;SDS011;65507;48.454;-2.058;2024-03-22T13:50:11;8.20;;;3.70;;
76612;SDS011;65507;48.454;-2.058;2024-03-22T13:52:37;7.47;;;4.22;;
76612;SDS011;65507;48.454;-2.058;2024-03-22T13:55:03;7.40;;;3.67;;
76612;SDS011;65507;48.454;-2.058;2024-03-22T13:57:29;9.60;;;3.90;;
76612;SDS011;65507;48.454;-2.058;2024-03-22T13:59:56;6.82;;;3.72;;
76612;SDS011;65507;48.454;-2.058;2024-03-22T14:02:22;9.32;;;3.47;;
76612;SDS011;65507;48.454;-2.058;2024-03-22T14:04:47;8.70;;;3.65;;
76612;SDS011;65507;48.454;-2.058;2024-03-22T14:07:13;6.32;;;3.45;;
76612;SDS011;65507;48.454;-2.058;2024-03-22T14:09:39;6.40;;;3.63;;
76612;SDS011;65507;48.454;-2.058;2024-03-22T14:12:06;6.93;;;3.42;;
76612;SDS011;65507;48.454;-2.058;2024-03-22T14:14:31;10.68;;;3.70;;
76612;SDS011;65507;48.454;-2.058;2024-03-22T14:16:57;8.60;;;3.28;;
76612;SDS011;65507;48.454;-2.058;2024-03-22T14:19:23;10.80;;;3.60;;
76612;SDS011;65507;48.454;-2.058;2024-03-22T14:21:49;7.07;;;3.72;;